createdAt,value
2018-03-30T00:04:41.447Z,2.22
2018-03-30T00:10:32.116Z,2.69
2018-03-30T00:16:22.827Z,2.58
2018-03-30T00:22:13.568Z,2.87
2018-03-30T00:28:04.247Z,2.42
2018-03-30T00:33:54.943Z,2.44
2018-03-30T00:39:45.681Z,2.53
2018-03-30T00:45:36.357Z,2.54
2018-03-30T00:51:27.036Z,2.51
2018-03-30T00:57:17.759Z,2.46
2018-03-30T01:03:08.495Z,2.99
2018-03-30T01:08:59.152Z,2.56
2018-03-30T01:14:49.899Z,3.2
2018-03-30T01:20:40.555Z,2.56
2018-03-30T01:26:31.346Z,4.08
2018-03-30T01:32:22.011Z,4.57
2018-03-30T01:38:12.695Z,3.5
2018-03-30T01:44:03.416Z,3.59
2018-03-30T01:49:54.103Z,3.89
2018-03-30T01:55:44.835Z,2.99
2018-03-30T02:01:35.541Z,3.71
2018-03-30T02:07:26.232Z,5.47
2018-03-30T02:13:16.890Z,4.06
2018-03-30T02:19:07.629Z,4.12
2018-03-30T02:24:58.294Z,3.19
2018-03-30T02:30:49.045Z,3.05
2018-03-30T02:36:39.761Z,3.67
2018-03-30T02:42:30.391Z,3.13
2018-03-30T02:48:21.132Z,3.19
2018-03-30T02:54:11.848Z,3.15
2018-03-30T03:00:02.760Z,3.61
2018-03-30T03:05:53.294Z,3.01
2018-03-30T03:11:43.920Z,3.34
2018-03-30T03:17:34.646Z,4.36
2018-03-30T03:23:25.368Z,3.88
2018-03-30T03:29:16.020Z,4.98
2018-03-30T03:35:06.741Z,3.86
2018-03-30T03:40:57.452Z,4.31
2018-03-30T03:46:48.173Z,4.21
2018-03-30T03:52:38.859Z,4.12
2018-03-30T03:58:29.632Z,4.46
2018-03-30T04:04:20.333Z,4.31
2018-03-30T04:10:11.077Z,4.05
2018-03-30T04:16:01.715Z,4.79
2018-03-30T04:21:52.417Z,4.22
2018-03-30T04:27:43.117Z,3.67
2018-03-30T04:33:33.797Z,4.01
2018-03-30T04:39:24.486Z,3.88
2018-03-30T04:45:15.249Z,4.32
2018-03-30T04:51:05.963Z,4.26
2018-03-30T04:56:56.645Z,4.01
2018-03-30T05:02:47.386Z,4.85
2018-03-30T05:08:38.019Z,6
2018-03-30T05:14:28.701Z,5.94
2018-03-30T05:20:19.427Z,5.18
2018-03-30T05:26:10.156Z,5.32
2018-03-30T05:32:00.844Z,5.17
2018-03-30T05:37:51.514Z,5.76
2018-03-30T05:43:42.253Z,5.14
2018-03-30T05:49:32.932Z,4.81
2018-03-30T05:55:23.658Z,5.77
2018-03-30T06:01:14.315Z,6.09
2018-03-30T06:07:05.045Z,6.1
2018-03-30T06:12:55.774Z,5.98
2018-03-30T06:18:46.456Z,6.28
2018-03-30T06:24:37.147Z,8.51
2018-03-30T06:30:27.822Z,8.26
2018-03-30T06:36:18.520Z,7.91
2018-03-30T06:42:09.278Z,7.96
2018-03-30T06:47:59.911Z,8.85
2018-03-30T06:53:50.640Z,8.81
2018-03-30T06:59:41.328Z,10.01
2018-03-30T07:05:32.060Z,9.21
2018-03-30T07:11:22.727Z,9.01
2018-03-30T07:17:13.447Z,8.79
2018-03-30T07:23:04.177Z,9.18
2018-03-30T07:28:54.857Z,9.45
2018-03-30T07:34:45.624Z,11.44
2018-03-30T07:40:36.230Z,10.18
2018-03-30T07:46:26.968Z,9.38
2018-03-30T07:52:17.658Z,9.26
2018-03-30T07:58:08.375Z,5.75
2018-03-30T08:03:59.081Z,6.18
2018-03-30T08:09:49.765Z,6.1
2018-03-30T08:15:40.506Z,6.64
2018-03-30T08:21:31.188Z,6.01
2018-03-30T08:27:21.897Z,5.83
2018-03-30T08:33:12.596Z,4.57
2018-03-30T08:39:03.383Z,5
2018-03-30T08:44:54.011Z,4.69
2018-03-30T08:50:44.724Z,6.65
2018-03-30T08:56:35.443Z,5.44
2018-03-30T09:02:26.168Z,6.13
2018-03-30T09:08:16.841Z,7.54
2018-03-30T09:14:07.620Z,8.27
2018-03-30T09:19:58.216Z,7.01
2018-03-30T09:25:48.961Z,7.16
2018-03-30T09:31:39.649Z,6.06
2018-03-30T09:37:30.378Z,6.59
2018-03-30T09:43:21.085Z,6.59
2018-03-30T09:49:11.801Z,6.25
2018-03-30T09:55:02.507Z,5.85
2018-03-30T10:00:53.201Z,5.89
2018-03-30T10:06:43.912Z,6.86
2018-03-30T10:12:34.667Z,4.84
2018-03-30T10:18:25.361Z,4.44
2018-03-30T10:24:16.051Z,4.9
2018-03-30T10:30:06.794Z,4.5
2018-03-30T10:35:57.482Z,4.56
2018-03-30T10:41:48.216Z,4.23
2018-03-30T10:47:38.963Z,4.83
2018-03-30T10:53:29.684Z,4.3
2018-03-30T10:59:20.384Z,4.42
2018-03-30T11:05:11.155Z,4.03
2018-03-30T11:11:01.826Z,3.94
2018-03-30T11:16:52.592Z,3.8
2018-03-30T11:22:43.271Z,3.69
2018-03-30T11:28:33.957Z,3.75
2018-03-30T11:34:24.758Z,3.84
2018-03-30T11:40:15.436Z,3.55
2018-03-30T11:46:06.164Z,2.88
2018-03-30T11:51:56.878Z,3.8
2018-03-30T11:57:47.634Z,3.57
2018-03-30T12:03:38.300Z,4.05
2018-03-30T12:09:29.093Z,3.78
2018-03-30T12:15:19.760Z,4.1
2018-03-30T12:21:10.467Z,3.93
2018-03-30T12:27:01.173Z,4.58
2018-03-30T12:32:51.970Z,3.27
2018-03-30T12:38:42.700Z,3.69
2018-03-30T12:44:33.342Z,3.97
2018-03-30T12:50:24.097Z,4.12
2018-03-30T12:56:14.789Z,3.69
2018-03-30T13:02:05.607Z,3.58
2018-03-30T13:07:56.281Z,3.2
2018-03-30T13:13:46.992Z,3.85
2018-03-30T13:19:37.679Z,3.12
2018-03-30T13:25:28.416Z,3.59
2018-03-30T13:31:19.161Z,3.81
2018-03-30T13:37:09.888Z,3.24
2018-03-30T13:43:00.613Z,3.39
2018-03-30T13:48:51.381Z,3.66
2018-03-30T13:54:41.994Z,3.45
2018-03-30T14:00:32.777Z,3.16
2018-03-30T14:06:23.468Z,3.2
2018-03-30T14:12:14.208Z,2.89
2018-03-30T14:18:04.909Z,2.63
2018-03-30T14:23:55.648Z,3.66
2018-03-30T14:29:46.446Z,2.57
2018-03-30T14:35:37.093Z,3.61
2018-03-30T14:41:27.857Z,3.29
2018-03-30T14:47:18.572Z,2.47
2018-03-30T14:53:09.338Z,3.12
2018-03-30T14:59:00.073Z,2.92
2018-03-30T15:04:50.788Z,3.11
2018-03-30T15:10:41.477Z,2.68
2018-03-30T15:16:32.215Z,2.66
2018-03-30T15:22:22.972Z,2.91
2018-03-30T15:28:13.651Z,3
2018-03-30T15:34:04.388Z,3.13
2018-03-30T15:39:55.133Z,3.36
2018-03-30T15:45:45.865Z,3.06
2018-03-30T15:51:36.597Z,4.12
2018-03-30T15:57:27.311Z,5.06
2018-03-30T16:03:18.055Z,4.91
2018-03-30T16:09:08.780Z,3.12
2018-03-30T16:14:59.485Z,3.19
2018-03-30T16:20:50.189Z,4.01
2018-03-30T16:26:40.892Z,4.24
2018-03-30T16:32:31.711Z,4.37
2018-03-30T16:38:22.384Z,3.11
2018-03-30T16:44:13.079Z,2.94
2018-03-30T16:50:03.790Z,3.38
2018-03-30T16:55:54.479Z,2.91
2018-03-30T17:01:45.222Z,3.29
2018-03-30T17:07:35.974Z,3.31
2018-03-30T17:13:26.641Z,3.62
2018-03-30T17:19:17.369Z,3.04
2018-03-30T17:25:08.066Z,3.37
2018-03-30T17:30:58.801Z,2.46
2018-03-30T17:36:49.523Z,2.81
2018-03-30T17:42:40.208Z,3.3
2018-03-30T17:48:30.971Z,3.15
2018-03-30T17:54:21.741Z,2.76
2018-03-30T18:00:12.448Z,3.76
2018-03-30T18:06:03.102Z,2.29
2018-03-30T18:11:53.839Z,2.58
2018-03-30T18:17:44.505Z,3.1
2018-03-30T18:23:35.223Z,3.36
2018-03-30T18:29:25.951Z,3.1
2018-03-30T18:35:16.688Z,3.15
2018-03-30T18:41:07.436Z,2.65
2018-03-30T18:46:58.117Z,2.47
2018-03-30T18:52:48.776Z,2.43
2018-03-30T18:58:39.624Z,2.78
2018-03-30T19:04:30.280Z,3.19
2018-03-30T19:10:20.922Z,2.41
2018-03-30T19:16:11.667Z,2.5
2018-03-30T19:22:02.333Z,2.23
2018-03-30T19:27:53.065Z,2.6
2018-03-30T19:33:43.773Z,3.62
2018-03-30T19:39:34.521Z,3.05
2018-03-30T19:45:25.201Z,2.14
2018-03-30T19:51:15.887Z,2.25
2018-03-30T19:57:06.637Z,2.19
2018-03-30T20:02:57.373Z,2.14
2018-03-30T20:08:48.027Z,2.01
2018-03-30T20:14:38.762Z,2.16
2018-03-30T20:20:29.548Z,2.37
2018-03-30T20:26:20.167Z,1.56
2018-03-30T20:32:10.876Z,1.82
2018-03-30T20:38:01.567Z,2.38
2018-03-30T20:43:52.287Z,1.88
2018-03-30T20:49:42.999Z,2.08
2018-03-30T20:55:33.667Z,1.7
2018-03-30T21:01:24.407Z,1.54
2018-03-30T21:07:15.112Z,1.81
2018-03-30T21:13:05.826Z,1.76
2018-03-30T21:18:56.531Z,2.13
2018-03-30T21:24:47.273Z,1.97
2018-03-30T21:30:37.980Z,1.9
2018-03-30T21:36:28.650Z,1.97
2018-03-30T21:42:19.386Z,2.38
2018-03-30T21:48:10.095Z,1.83
2018-03-30T21:54:00.798Z,1.97
2018-03-30T21:59:51.501Z,1.85
2018-03-30T22:05:42.255Z,1.92
2018-03-30T22:11:32.937Z,2.13
2018-03-30T22:17:23.618Z,6.44
2018-03-30T22:23:14.305Z,2.3
2018-03-30T22:29:05.001Z,1.81
2018-03-30T22:34:55.726Z,1.9
2018-03-30T22:40:46.390Z,1.9
2018-03-30T22:46:37.113Z,1.83
2018-03-30T22:52:27.805Z,1.73
2018-03-30T22:58:18.531Z,2.13
2018-03-30T23:04:09.242Z,2.62
2018-03-30T23:09:59.966Z,2.15
2018-03-30T23:15:50.693Z,2.45
2018-03-30T23:21:41.437Z,2.31
2018-03-30T23:27:32.082Z,2.79
2018-03-30T23:33:22.774Z,2.86
2018-03-30T23:39:13.490Z,7.41
2018-03-30T23:45:04.185Z,8.45
2018-03-30T23:50:54.908Z,3.45
2018-03-30T23:56:45.652Z,2.46
